createdAt,value
2022-11-18T00:00:58.631Z,52.70
2022-11-18T00:03:31.545Z,54.40
2022-11-18T00:06:03.421Z,53.30
2022-11-18T00:08:35.210Z,56.80
2022-11-18T00:11:10.296Z,50.80
2022-11-18T00:14:14.259Z,52.60
2022-11-18T00:16:46.326Z,51.10
2022-11-18T00:19:19.435Z,47.50
2022-11-18T00:21:51.821Z,52.50
2022-11-18T00:24:23.834Z,36.90
2022-11-18T00:26:55.648Z,35.70
2022-11-18T00:29:28.369Z,49.50
2022-11-18T00:32:00.592Z,55.40
2022-11-18T00:34:32.580Z,52.80
2022-11-18T00:37:04.378Z,35.20
2022-11-18T00:39:36.094Z,38.10
2022-11-18T00:42:26.245Z,46.80
2022-11-18T00:44:57.902Z,51.80
2022-11-18T00:47:29.525Z,55.40
2022-11-18T00:50:01.180Z,49.10
2022-11-18T00:52:33.381Z,49.40
2022-11-18T00:55:06.175Z,46.40
2022-11-18T00:57:37.812Z,51.10
2022-11-18T01:00:12.467Z,47.80
2022-11-18T01:02:44.589Z,45.30
2022-11-18T01:05:16.674Z,44.50
2022-11-18T01:07:48.831Z,45.40
2022-11-18T01:10:20.767Z,46.10
2022-11-18T01:13:11.028Z,43.10
2022-11-18T01:15:45.317Z,40.30
2022-11-18T01:18:17.307Z,40.90
2022-11-18T01:20:49.370Z,45.00
2022-11-18T01:23:22.410Z,44.90
2022-11-18T01:25:54.237Z,40.70
2022-11-18T01:28:25.979Z,44.70
2022-11-18T01:31:04.125Z,41.70
2022-11-18T01:33:36.718Z,44.20
2022-11-18T01:36:18.159Z,46.20
2022-11-18T01:38:51.250Z,45.90
2022-11-18T01:41:25.846Z,46.50
2022-11-18T01:43:59.787Z,41.50
2022-11-18T01:46:33.151Z,44.90
2022-11-18T01:49:08.638Z,45.50
2022-11-18T01:51:47.701Z,46.90
2022-11-18T01:54:25.375Z,41.70
2022-11-18T01:57:00.461Z,42.50
2022-11-18T01:59:36.783Z,43.30
2022-11-18T02:02:13.029Z,42.00
2022-11-18T02:04:48.841Z,45.40
2022-11-18T02:07:22.216Z,47.10
2022-11-18T02:09:54.885Z,52.60
2022-11-18T02:12:26.777Z,41.00
2022-11-18T02:15:00.324Z,38.70
2022-11-18T02:17:44.593Z,47.30
2022-11-18T02:20:35.349Z,41.20
2022-11-18T02:23:35.661Z,37.90
2022-11-18T02:26:43.359Z,41.00
2022-11-18T02:29:21.180Z,39.90
2022-11-18T02:32:00.351Z,44.20
2022-11-18T02:34:41.380Z,40.60
2022-11-18T02:37:21.982Z,40.10
2022-11-18T02:40:00.184Z,43.90
2022-11-18T02:42:36.362Z,42.80
2022-11-18T02:45:14.686Z,40.20
2022-11-18T02:47:49.440Z,41.10
2022-11-18T02:50:27.537Z,44.00
2022-11-18T02:53:02.540Z,42.20
2022-11-18T02:55:39.209Z,42.30
2022-11-18T02:58:12.849Z,38.80
2022-11-18T03:00:45.226Z,41.70
2022-11-18T03:03:29.843Z,41.90
2022-11-18T03:06:11.321Z,45.10
2022-11-18T03:08:52.440Z,45.60
2022-11-18T03:11:29.396Z,41.60
2022-11-18T03:14:13.669Z,45.10
2022-11-18T03:16:53.239Z,43.40
2022-11-18T03:19:31.625Z,43.10
2022-11-18T03:22:12.826Z,48.30
2022-11-18T03:24:50.654Z,42.00
2022-11-18T03:27:27.267Z,46.80
2022-11-18T03:30:05.060Z,47.20
2022-11-18T03:32:42.127Z,48.00
2022-11-18T03:35:18.030Z,49.30
2022-11-18T03:37:51.630Z,47.80
2022-11-18T03:40:29.387Z,57.60
2022-11-18T03:43:07.446Z,51.40
2022-11-18T03:45:43.961Z,54.00
2022-11-18T03:48:18.825Z,59.40
2022-11-18T03:50:56.845Z,59.90
2022-11-18T03:53:32.148Z,54.90
2022-11-18T03:56:15.807Z,61.00
2022-11-18T03:58:54.501Z,54.50
2022-11-18T04:01:35.554Z,53.40
2022-11-18T04:04:07.971Z,56.90
2022-11-18T04:06:44.346Z,61.00
2022-11-18T04:09:19.644Z,64.10
2022-11-18T04:12:05.045Z,57.50
2022-11-18T04:14:43.745Z,67.00
2022-11-18T04:17:17.962Z,60.80
2022-11-18T04:19:51.164Z,61.30
2022-11-18T04:22:23.326Z,65.60
2022-11-18T04:24:55.443Z,60.60
2022-11-18T04:27:27.217Z,55.90
2022-11-18T04:29:59.114Z,63.20
2022-11-18T04:32:31.199Z,59.30
2022-11-18T04:35:03.104Z,60.00
2022-11-18T04:37:34.761Z,57.30
2022-11-18T04:40:07.626Z,57.40
2022-11-18T04:42:39.438Z,53.00
2022-11-18T04:45:12.958Z,61.10
2022-11-18T04:47:45.005Z,58.00
2022-11-18T04:50:17.065Z,49.10
2022-11-18T04:52:48.719Z,54.20
2022-11-18T04:55:20.570Z,55.00
2022-11-18T04:57:52.282Z,54.40
2022-11-18T05:00:24.318Z,56.10
2022-11-18T05:02:56.212Z,48.50
2022-11-18T05:05:27.843Z,54.80
2022-11-18T05:08:00.454Z,53.30
2022-11-18T05:10:32.068Z,48.80
2022-11-18T05:13:03.897Z,47.10
2022-11-18T05:15:36.224Z,51.40
2022-11-18T05:18:11.079Z,46.30
2022-11-18T05:20:42.781Z,47.20
2022-11-18T05:23:14.788Z,50.70
2022-11-18T05:25:46.498Z,51.90
2022-11-18T05:28:18.136Z,38.20
2022-11-18T05:30:50.573Z,40.60
2022-11-18T05:33:22.236Z,50.50
2022-11-18T05:35:55.363Z,48.10
2022-11-18T05:38:27.449Z,57.80
2022-11-18T05:40:59.287Z,52.90
2022-11-18T05:43:31.990Z,57.10
2022-11-18T05:48:35.266Z,54.20
2022-11-18T05:51:07.701Z,64.60
2022-11-18T05:53:39.464Z,60.30
2022-11-18T05:56:20.215Z,62.20
2022-11-18T05:58:52.224Z,68.80
2022-11-18T06:01:29.029Z,60.20
2022-11-18T06:04:03.770Z,61.10
2022-11-18T06:06:36.060Z,60.10
2022-11-18T06:09:09.754Z,54.90
2022-11-18T06:11:46.152Z,62.90
2022-11-18T06:14:22.517Z,65.20
2022-11-18T06:16:57.655Z,52.80
2022-11-18T06:19:29.860Z,56.20
2022-11-18T06:22:02.578Z,56.60
2022-11-18T06:24:35.000Z,55.00
2022-11-18T06:27:08.135Z,66.80
2022-11-18T06:29:39.842Z,58.20
2022-11-18T06:32:13.199Z,61.10
2022-11-18T06:34:45.388Z,59.40
2022-11-18T06:37:18.756Z,56.10
2022-11-18T06:39:50.995Z,57.80
2022-11-18T06:42:40.602Z,58.00
2022-11-18T06:45:13.857Z,52.40
2022-11-18T06:47:46.532Z,44.80
2022-11-18T06:50:19.207Z,51.50
2022-11-18T06:55:22.346Z,60.20
2022-11-18T06:57:55.764Z,45.40
2022-11-18T07:00:28.395Z,36.90
2022-11-18T07:03:03.240Z,35.90
2022-11-18T07:05:35.287Z,36.70
2022-11-18T07:08:08.064Z,33.60
2022-11-18T07:10:40.284Z,39.20
2022-11-18T07:13:12.294Z,35.30
2022-11-18T07:15:44.503Z,34.00
2022-11-18T07:18:16.540Z,39.60
2022-11-18T07:20:48.602Z,31.40
2022-11-18T07:23:22.317Z,37.50
2022-11-18T07:25:57.080Z,34.70
2022-11-18T07:28:30.432Z,36.40
2022-11-18T07:31:07.919Z,36.20
2022-11-18T07:33:41.543Z,45.90
2022-11-18T07:36:15.768Z,36.20
2022-11-18T07:38:48.285Z,41.00
2022-11-18T07:41:21.656Z,38.40
2022-11-18T07:44:00.110Z,32.30
2022-11-18T07:46:35.334Z,29.80
2022-11-18T07:49:09.717Z,34.30
2022-11-18T07:51:42.774Z,29.70
2022-11-18T07:54:17.144Z,38.00
2022-11-18T07:56:48.939Z,32.80
2022-11-18T07:59:20.887Z,33.20
2022-11-18T08:01:52.857Z,26.00
2022-11-18T08:04:25.044Z,20.00
2022-11-18T08:06:59.033Z,31.60
2022-11-18T08:09:31.384Z,27.80
2022-11-18T08:12:03.369Z,29.30
2022-11-18T08:14:35.846Z,25.90
2022-11-18T08:17:07.701Z,20.60
2022-11-18T08:19:39.835Z,16.30
2022-11-18T08:22:12.614Z,18.90
2022-11-18T08:24:44.642Z,16.80
2022-11-18T08:27:16.404Z,17.90
2022-11-18T08:29:48.675Z,14.00
2022-11-18T08:32:20.950Z,14.90
2022-11-18T08:34:52.956Z,11.40
2022-11-18T08:37:24.974Z,11.70
2022-11-18T08:39:57.369Z,12.90
2022-11-18T08:42:34.097Z,15.00
2022-11-18T08:45:08.541Z,18.80
2022-11-18T08:47:40.713Z,13.80
2022-11-18T08:50:13.761Z,11.80
2022-11-18T08:52:45.415Z,14.10
2022-11-18T08:55:17.296Z,12.90
2022-11-18T08:57:49.741Z,11.70
2022-11-18T09:00:22.548Z,11.70
2022-11-18T09:02:55.239Z,11.90
2022-11-18T09:05:26.867Z,11.40
2022-11-18T09:07:58.723Z,14.10
2022-11-18T09:10:30.437Z,10.70
2022-11-18T09:13:24.893Z,13.30
2022-11-18T09:15:53.869Z,13.30
2022-11-18T09:18:24.512Z,12.30
2022-11-18T09:21:00.615Z,12.10
2022-11-18T09:23:34.092Z,12.80
2022-11-18T09:26:08.553Z,11.50
2022-11-18T09:28:40.550Z,15.40
2022-11-18T09:31:14.600Z,10.60
2022-11-18T09:33:47.356Z,15.80
2022-11-18T09:38:53.514Z,11.30
2022-11-18T09:41:44.832Z,12.30
2022-11-18T09:44:42.823Z,13.50
2022-11-18T09:47:30.898Z,13.20
2022-11-18T09:50:26.904Z,13.90
2022-11-18T09:53:11.930Z,12.00
2022-11-18T09:55:43.961Z,12.20
2022-11-18T09:58:19.911Z,10.10
2022-11-18T10:00:51.713Z,8.90
2022-11-18T10:03:29.892Z,10.60
2022-11-18T10:06:19.127Z,13.20
2022-11-18T10:09:06.989Z,9.60
2022-11-18T10:11:51.943Z,8.30
2022-11-18T10:14:39.865Z,7.50
2022-11-18T10:17:32.535Z,9.70
2022-11-18T10:20:21.294Z,9.00
2022-11-18T10:22:57.464Z,12.40
2022-11-18T10:25:29.432Z,13.50
2022-11-18T10:28:17.972Z,8.20
2022-11-18T10:30:51.756Z,7.30
2022-11-18T10:33:32.624Z,9.70
2022-11-18T10:36:30.893Z,15.20
2022-11-18T10:39:14.591Z,20.80
2022-11-18T10:41:53.391Z,17.00
2022-11-18T10:44:44.635Z,20.10
2022-11-18T10:47:33.948Z,32.20
2022-11-18T10:50:30.867Z,13.30
2022-11-18T10:53:03.073Z,15.60
2022-11-18T10:55:35.107Z,10.90
2022-11-18T10:58:17.112Z,8.40
2022-11-18T11:00:50.932Z,16.00
2022-11-18T11:03:37.155Z,28.40
2022-11-18T11:06:32.026Z,21.80
2022-11-18T11:09:08.156Z,27.80
2022-11-18T11:11:43.643Z,18.80
2022-11-18T11:14:28.351Z,17.70
2022-11-18T11:17:09.566Z,25.50
2022-11-18T11:19:49.092Z,13.80
2022-11-18T11:22:21.364Z,13.60
2022-11-18T11:24:53.542Z,13.50
2022-11-18T11:30:47.221Z,18.20
2022-11-18T11:33:27.796Z,14.00
2022-11-18T11:36:15.151Z,27.70
2022-11-18T11:39:04.223Z,33.30
2022-11-18T11:41:48.111Z,23.60
2022-11-18T11:44:41.301Z,82.00
2022-11-18T11:50:19.676Z,9.20
2022-11-18T11:53:05.935Z,9.80
2022-11-18T11:55:45.888Z,14.50
2022-11-18T11:58:38.414Z,8.60
2022-11-18T12:01:20.137Z,9.10
2022-11-18T12:03:57.886Z,10.00
2022-11-18T12:06:30.236Z,7.90
2022-11-18T12:09:10.640Z,6.80
2022-11-18T12:11:49.897Z,21.00
2022-11-18T12:14:34.652Z,9.10
2022-11-18T12:17:16.248Z,6.80
2022-11-18T12:19:48.844Z,16.60
2022-11-18T12:22:20.665Z,9.20
2022-11-18T12:24:52.506Z,7.10
2022-11-18T12:27:59.982Z,14.10
2022-11-18T12:30:31.893Z,10.10
2022-11-18T12:33:03.949Z,14.80
2022-11-18T12:35:36.497Z,13.80
2022-11-18T12:38:28.397Z,20.80
2022-11-18T12:41:20.116Z,11.60
2022-11-18T12:44:14.147Z,21.00
2022-11-18T12:46:56.299Z,13.60
2022-11-18T12:50:12.775Z,9.20
2022-11-18T12:52:57.699Z,18.50
2022-11-18T12:55:34.503Z,26.40
2022-11-18T12:58:21.224Z,43.90
2022-11-18T13:01:06.209Z,21.80
2022-11-18T13:03:38.619Z,19.50
2022-11-18T13:06:32.926Z,15.10
2022-11-18T13:09:09.219Z,13.10
2022-11-18T13:11:48.627Z,11.40
2022-11-18T13:14:43.565Z,13.50
2022-11-18T13:17:48.341Z,10.50
2022-11-18T13:20:27.346Z,14.10
2022-11-18T13:23:18.940Z,12.60
2022-11-18T13:25:51.995Z,10.10
2022-11-18T13:28:34.196Z,12.90
2022-11-18T13:31:14.356Z,13.70
2022-11-18T13:33:46.166Z,17.30
2022-11-18T13:36:24.307Z,7.80
2022-11-18T13:39:01.238Z,7.90
2022-11-18T13:41:34.854Z,15.50
2022-11-18T13:44:21.132Z,12.70
2022-11-18T13:46:57.371Z,11.90
2022-11-18T13:49:48.896Z,13.60
2022-11-18T13:52:29.284Z,13.00
2022-11-18T13:55:04.243Z,12.30
2022-11-18T13:57:37.727Z,10.90
2022-11-18T14:00:24.403Z,11.70
2022-11-18T14:03:00.994Z,12.50
2022-11-18T14:05:32.961Z,10.90
2022-11-18T14:08:24.339Z,6.80
2022-11-18T14:10:56.153Z,9.70
2022-11-18T14:13:30.401Z,11.90
2022-11-18T14:16:03.739Z,10.80
2022-11-18T14:18:37.542Z,14.60
2022-11-18T14:21:12.803Z,15.50
2022-11-18T14:23:46.914Z,10.30
2022-11-18T14:26:31.315Z,13.70
2022-11-18T14:29:17.444Z,71.00
2022-11-18T14:32:14.146Z,140.80
2022-11-18T14:34:58.312Z,86.90
2022-11-18T14:37:31.338Z,70.00
2022-11-18T14:40:04.957Z,62.80
2022-11-18T14:42:39.696Z,153.80
2022-11-18T14:45:14.288Z,120.30
2022-11-18T14:47:48.639Z,95.10
2022-11-18T14:50:20.805Z,86.70
2022-11-18T14:52:53.141Z,91.40
2022-11-18T14:55:24.757Z,114.20
2022-11-18T14:57:56.600Z,136.00
2022-11-18T15:00:28.734Z,117.30
2022-11-18T15:03:00.651Z,55.80
2022-11-18T15:05:32.585Z,85.20
2022-11-18T15:08:07.792Z,93.80
2022-11-18T15:10:41.354Z,86.10
2022-11-18T15:13:13.596Z,57.40
2022-11-18T15:15:45.505Z,69.30
2022-11-18T15:18:17.314Z,53.60
2022-11-18T15:20:49.222Z,65.90
2022-11-18T15:23:23.487Z,27.30
2022-11-18T15:25:57.578Z,40.20
2022-11-18T15:28:30.191Z,31.00
2022-11-18T15:31:02.163Z,40.10
2022-11-18T15:33:33.888Z,48.50
2022-11-18T15:36:10.619Z,37.10
2022-11-18T15:38:44.549Z,28.30
2022-11-18T15:41:18.926Z,26.60
2022-11-18T15:43:51.676Z,24.40
2022-11-18T15:48:56.886Z,21.60
2022-11-18T15:51:30.781Z,19.80
2022-11-18T15:54:03.093Z,19.40
2022-11-18T15:56:37.687Z,15.70
2022-11-18T15:59:11.678Z,17.40
2022-11-18T16:01:45.938Z,15.00
2022-11-18T16:04:21.834Z,23.70
2022-11-18T16:06:54.862Z,30.20
2022-11-18T16:09:48.837Z,20.40
2022-11-18T16:12:38.663Z,16.40
2022-11-18T16:15:31.325Z,15.70
2022-11-18T16:18:06.870Z,11.50
2022-11-18T16:20:40.290Z,14.20
2022-11-18T16:23:12.666Z,14.50
2022-11-18T16:28:20.584Z,14.20
2022-11-18T16:33:42.155Z,24.60
2022-11-18T16:36:14.307Z,23.50
2022-11-18T16:38:46.760Z,21.40
2022-11-18T16:41:33.474Z,25.70
2022-11-18T16:44:07.452Z,28.30
2022-11-18T16:46:41.508Z,21.20
2022-11-18T16:49:17.118Z,25.50
2022-11-18T16:51:51.888Z,25.50
2022-11-18T16:54:25.787Z,23.10
2022-11-18T16:56:59.637Z,25.60
2022-11-18T16:59:34.102Z,25.60
2022-11-18T17:02:12.492Z,24.20
2022-11-18T17:04:45.251Z,28.60
2022-11-18T17:07:17.733Z,29.50
2022-11-18T17:09:49.757Z,28.90
2022-11-18T17:12:21.875Z,28.60
2022-11-18T17:14:53.545Z,24.30
2022-11-18T17:17:25.817Z,22.80
2022-11-18T17:19:58.027Z,27.30
2022-11-18T17:22:30.012Z,26.10
2022-11-18T17:25:05.443Z,37.90
2022-11-18T17:27:38.761Z,19.40
2022-11-18T17:30:12.905Z,30.00
2022-11-18T17:32:45.828Z,23.40
2022-11-18T17:35:18.794Z,21.40
2022-11-18T17:37:50.882Z,24.70
2022-11-18T17:40:22.843Z,23.10
2022-11-18T17:42:54.542Z,24.00
2022-11-18T17:45:26.484Z,27.60
2022-11-18T17:47:58.718Z,28.70
2022-11-18T17:50:30.846Z,23.90
2022-11-18T17:53:02.697Z,19.10
2022-11-18T17:55:36.448Z,28.40
2022-11-18T17:58:08.576Z,28.50
2022-11-18T18:00:40.937Z,33.00
2022-11-18T18:03:12.721Z,25.30
2022-11-18T18:05:47.002Z,27.90
2022-11-18T18:08:19.581Z,30.40
2022-11-18T18:10:51.368Z,28.60
2022-11-18T18:13:41.225Z,26.10
2022-11-18T18:16:14.331Z,27.10
2022-11-18T18:18:47.164Z,27.80
2022-11-18T18:21:22.066Z,28.80
2022-11-18T18:23:55.284Z,26.30
2022-11-18T18:26:31.493Z,28.30
2022-11-18T18:29:07.413Z,34.00
2022-11-18T18:31:39.984Z,30.90
2022-11-18T18:34:11.885Z,30.20
2022-11-18T18:36:45.246Z,34.00
2022-11-18T18:39:20.491Z,28.20
2022-11-18T18:41:54.255Z,28.40
2022-11-18T18:44:46.295Z,26.10
2022-11-18T18:47:18.130Z,34.00
2022-11-18T18:49:49.880Z,23.00
2022-11-18T18:52:21.770Z,31.90
2022-11-18T18:54:53.877Z,32.10
2022-11-18T18:57:25.973Z,33.70
2022-11-18T18:59:57.961Z,29.90
2022-11-18T19:02:29.818Z,27.50
2022-11-18T19:05:01.560Z,31.60
2022-11-18T19:07:33.400Z,29.10
2022-11-18T19:10:07.433Z,30.90
2022-11-18T19:12:51.662Z,28.70
2022-11-18T19:15:23.539Z,37.40
2022-11-18T19:17:55.435Z,33.10
2022-11-18T19:20:37.576Z,35.80
2022-11-18T19:23:11.228Z,31.40
2022-11-18T19:25:43.971Z,35.20
2022-11-18T19:28:15.715Z,38.10
2022-11-18T19:30:47.772Z,35.20
2022-11-18T19:33:20.341Z,34.20
2022-11-18T19:38:23.732Z,26.70
2022-11-18T19:43:34.363Z,43.80
2022-11-18T19:46:07.171Z,26.40
2022-11-18T19:51:12.854Z,53.50
2022-11-18T19:53:45.149Z,91.70
2022-11-18T19:56:19.430Z,92.90
2022-11-18T19:58:52.708Z,98.80
2022-11-18T20:01:27.770Z,184.30
2022-11-18T20:04:03.273Z,208.10
2022-11-18T20:06:37.163Z,179.60
2022-11-18T20:09:11.099Z,69.60
2022-11-18T20:11:44.010Z,33.70
2022-11-18T20:14:15.828Z,50.60
2022-11-18T20:16:47.874Z,75.40
2022-11-18T20:19:20.186Z,39.10
2022-11-18T20:24:22.476Z,77.50
2022-11-18T20:26:54.956Z,51.00
2022-11-18T20:29:27.734Z,37.60
2022-11-18T20:34:30.790Z,34.10
2022-11-18T20:37:03.591Z,33.30
2022-11-18T20:39:36.650Z,30.70
2022-11-18T20:42:26.002Z,30.10
2022-11-18T20:44:59.058Z,30.90
2022-11-18T20:47:32.063Z,22.40
2022-11-18T20:50:08.374Z,20.50
2022-11-18T20:52:40.925Z,23.90
2022-11-18T20:55:13.071Z,18.50
2022-11-18T20:57:46.105Z,19.20
2022-11-18T21:00:19.866Z,16.50
2022-11-18T21:02:52.025Z,21.90
2022-11-18T21:05:24.275Z,25.90
2022-11-18T21:07:56.223Z,22.00
2022-11-18T21:10:28.380Z,16.60
2022-11-18T21:13:18.069Z,25.60
2022-11-18T21:15:50.997Z,22.00
2022-11-18T21:18:22.920Z,21.10
2022-11-18T21:21:16.935Z,23.80
2022-11-18T21:23:54.046Z,25.60
2022-11-18T21:26:27.841Z,21.60
2022-11-18T21:29:02.689Z,19.60
2022-11-18T21:31:35.834Z,28.60
2022-11-18T21:34:08.863Z,20.00
2022-11-18T21:36:45.045Z,23.00
2022-11-18T21:39:19.633Z,26.30
2022-11-18T21:41:55.806Z,25.80
2022-11-18T21:44:28.955Z,27.90
2022-11-18T21:47:01.050Z,27.60
2022-11-18T21:49:33.061Z,31.50
2022-11-18T21:52:05.016Z,22.70
2022-11-18T21:54:36.819Z,27.10
2022-11-18T21:57:08.604Z,21.90
2022-11-18T21:59:40.428Z,24.20
2022-11-18T22:02:15.321Z,24.90
2022-11-18T22:04:54.468Z,22.70
2022-11-18T22:07:27.298Z,26.90
2022-11-18T22:09:59.577Z,24.30
2022-11-18T22:12:31.368Z,25.50
2022-11-18T22:15:03.538Z,28.90
2022-11-18T22:17:35.414Z,26.90
2022-11-18T22:20:09.226Z,21.30
2022-11-18T22:22:41.530Z,28.30
2022-11-18T22:25:13.785Z,23.70
2022-11-18T22:27:45.719Z,24.80
2022-11-18T22:30:18.230Z,25.40
2022-11-18T22:32:50.053Z,28.60
2022-11-18T22:35:22.072Z,24.40
2022-11-18T22:37:53.797Z,32.20
2022-11-18T22:40:26.578Z,25.80
2022-11-18T22:45:28.951Z,21.90
2022-11-18T22:48:01.105Z,26.70
2022-11-18T22:50:33.217Z,15.20
2022-11-18T22:53:05.109Z,25.00
2022-11-18T22:55:36.742Z,25.00
2022-11-18T22:58:08.781Z,25.40
2022-11-18T23:00:40.707Z,25.30
2022-11-18T23:03:12.525Z,17.30
2022-11-18T23:05:47.966Z,15.50
2022-11-18T23:08:19.876Z,24.30
2022-11-18T23:10:52.104Z,25.20
2022-11-18T23:13:42.670Z,23.10
2022-11-18T23:16:14.406Z,26.60
2022-11-18T23:18:47.542Z,24.20
2022-11-18T23:21:20.258Z,25.90
2022-11-18T23:26:23.943Z,29.70
2022-11-18T23:28:55.973Z,22.20
2022-11-18T23:31:29.077Z,21.50
2022-11-18T23:34:01.212Z,29.20
2022-11-18T23:36:33.310Z,28.20
2022-11-18T23:39:05.310Z,29.20
2022-11-18T23:41:37.282Z,21.70
2022-11-18T23:44:09.916Z,30.10
2022-11-18T23:49:12.547Z,26.40
2022-11-18T23:51:44.175Z,25.50
2022-11-18T23:54:15.945Z,24.70
2022-11-18T23:56:47.681Z,29.20
2022-11-18T23:59:21.706Z,26.70
